Lochwinnoch, United Kingdom
Current Conditions -  °F | °C
As of 11:20 PM on Friday 19 Dec 2014 (Local Time) from EGPF Reporting Station
Light Rain Light Rain  
Wind Chill: 34°   Ceiling: Unl
Heat Index: 43°   Visibility: 6mi
Dew Point: 37°   Wind: 23mph
Humidity: 81%   Direction: 270°W
Pressure: 29.83"   Gusts: 43mph
Location:  55.8°N, 4.63°W
Report Text: EGPF 192320Z AUTO 27020G37KT 9999 -RA FEW029/// //////TCU 06/03 Q1010 RERA
Loading
Personal Weather Stations






























Interactive Weather Map New forecast layout! Learn more

10-Day Weather Forecast

Advertisements
Track Severe Weather on mobile